Time;durP1;ratioP1;P1;durP2;ratioP2;P2;SDS_P1;SDS_P2;PMS_P1;PMS_P2;Temp;Humidity;BMP_temperature;BMP_pressure;BME280_temperature;BME280_humidity;BME280_pressure;Samples;Min_cycle;Max_cycle;Signal;HPM_P1;HPM_P2
2024/01/17 00:01:55;;;;;;;12.95;8.48;;;0.90;99.90;;;;;;5058105;28;20036;-85
2024/01/17 00:04:23;;;;;;;17.33;10.18;;;0.90;99.90;;;;;;5055417;28;20065;-85
2024/01/17 00:06:49;;;;;;;13.48;9.05;;;0.90;99.90;;;;;;5055236;28;20469;-84
2024/01/17 00:09:15;;;;;;;18.58;9.30;;;0.90;99.90;;;;;;5072235;28;20036;-84
2024/01/17 00:11:42;;;;;;;13.82;8.77;;;0.90;99.90;;;;;;5072201;28;20565;-84
2024/01/17 00:14:08;;;;;;;14.45;9.32;;;0.90;99.90;;;;;;5067979;28;20036;-85
2024/01/17 00:16:34;;;;;;;12.73;8.77;;;0.90;99.90;;;;;;5055239;28;20112;-86
2024/01/17 00:18:59;;;;;;;14.00;9.73;;;0.90;99.90;;;;;;5054733;28;20036;-85
2024/01/17 00:21:25;;;;;;;20.08;11.13;;;0.90;99.90;;;;;;5055357;28;20028;-85
2024/01/17 00:23:50;;;;;;;25.63;9.98;;;0.90;99.90;;;;;;5054927;28;20107;-84
2024/01/17 00:26:16;;;;;;;19.35;9.32;;;0.90;99.90;;;;;;5055732;28;20385;-84
2024/01/17 00:28:42;;;;;;;12.80;8.60;;;0.90;99.90;;;;;;5072397;28;20380;-84
2024/01/17 00:31:12;;;;;;;16.88;8.98;;;0.90;99.90;;;;;;5057090;28;20028;-84
2024/01/17 00:33:38;;;;;;;15.30;9.27;;;0.90;99.90;;;;;;5070869;28;20028;-84
2024/01/17 00:36:04;;;;;;;13.60;8.60;;;1.70;99.90;;;;;;5074876;28;20099;-84
2024/01/17 00:38:33;;;;;;;23.85;8.40;;;0.90;99.90;;;;;;5062839;28;20032;-84
2024/01/17 00:40:58;;;;;;;18.13;9.52;;;0.90;99.90;;;;;;5054041;28;20469;-84
2024/01/17 00:43:24;;;;;;;15.38;9.45;;;0.90;99.90;;;;;;5062287;28;20029;-84
2024/01/17 00:45:49;;;;;;;17.63;9.82;;;0.90;99.90;;;;;;5074526;28;20047;-84
2024/01/17 00:48:15;;;;;;;14.13;9.77;;;0.90;99.90;;;;;;5071739;28;20381;-85
2024/01/17 00:50:41;;;;;;;21.00;9.27;;;0.80;99.90;;;;;;5074671;28;20017;-85
2024/01/17 00:53:07;;;;;;;16.48;9.32;;;0.80;99.90;;;;;;5073957;28;20487;-85
2024/01/17 00:55:33;;;;;;;14.40;9.93;;;0.90;99.90;;;;;;5073725;28;20029;-84
2024/01/17 00:57:59;;;;;;;19.48;9.25;;;0.80;99.90;;;;;;5074687;28;20035;-85
2024/01/17 01:00:24;;;;;;;14.30;9.18;;;0.80;99.90;;;;;;5074002;28;20369;-85
2024/01/17 01:02:53;;;;;;;16.10;9.40;;;0.80;99.90;;;;;;5073963;28;20699;-85
2024/01/17 01:05:18;;;;;;;16.48;8.68;;;0.90;99.90;;;;;;5074372;28;20024;-85
2024/01/17 01:07:44;;;;;;;16.88;9.90;;;0.90;99.90;;;;;;5073340;28;20342;-85
2024/01/17 01:10:10;;;;;;;17.58;9.73;;;0.90;99.90;;;;;;5070808;28;20036;-86
2024/01/17 01:12:37;;;;;;;23.02;10.55;;;0.90;99.90;;;;;;5066855;28;20667;-85
2024/01/17 01:15:04;;;;;;;20.33;10.23;;;0.90;99.90;;;;;;5053559;28;20033;-85
2024/01/17 01:17:30;;;;;;;19.40;9.75;;;0.90;99.90;;;;;;5054100;28;20027;-85
2024/01/17 01:19:56;;;;;;;13.85;9.43;;;0.90;99.90;;;;;;5053775;28;20033;-86
2024/01/17 01:22:22;;;;;;;17.70;9.88;;;0.90;99.90;;;;;;5053310;28;20049;-86
2024/01/17 01:24:47;;;;;;;13.45;8.63;;;0.80;99.90;;;;;;5053872;28;20122;-86
2024/01/17 01:27:13;;;;;;;19.20;10.00;;;0.80;99.90;;;;;;5069056;28;20124;-85
2024/01/17 01:29:38;;;;;;;17.90;10.25;;;1.40;99.90;;;;;;5071724;28;20035;-86
2024/01/17 01:32:04;;;;;;;16.85;9.07;;;0.80;99.90;;;;;;5073769;28;20547;-86
2024/01/17 01:34:30;;;;;;;23.92;10.00;;;0.90;99.90;;;;;;5075563;28;20464;-86
2024/01/17 01:36:55;;;;;;;18.15;9.57;;;0.80;99.90;;;;;;5063580;28;20033;-85
2024/01/17 01:39:21;;;;;;;18.08;10.18;;;0.80;99.90;;;;;;5053439;28;20033;-85
2024/01/17 01:41:48;;;;;;;21.52;10.00;;;0.80;99.90;;;;;;5057641;28;20021;-85
2024/01/17 01:44:14;;;;;;;16.40;9.52;;;0.80;99.90;;;;;;5053031;28;20025;-85
2024/01/17 01:46:44;;;;;;;14.63;9.45;;;0.80;99.90;;;;;;5053158;28;20525;-85
2024/01/17 01:49:09;;;;;;;17.17;9.88;;;0.80;99.90;;;;;;5060879;28;20107;-85
2024/01/17 01:51:38;;;;;;;20.58;10.23;;;0.70;99.90;;;;;;5071982;28;20469;-85
2024/01/17 01:54:04;;;;;;;16.52;9.68;;;0.70;99.90;;;;;;5052806;28;20040;-85
2024/01/17 01:56:32;;;;;;;17.15;10.50;;;0.70;99.90;;;;;;5072519;28;20031;-85
2024/01/17 01:59:00;;;;;;;18.20;9.70;;;0.70;99.90;;;;;;5052222;28;20117;-85
2024/01/17 02:01:28;;;;;;;18.67;10.10;;;0.70;99.90;;;;;;5053156;28;20025;-86
2024/01/17 02:03:56;;;;;;;18.23;9.75;;;0.70;99.90;;;;;;5052399;28;20029;-85
2024/01/17 02:06:23;;;;;;;17.65;10.07;;;0.70;99.90;;;;;;5053020;28;20031;-86
2024/01/17 02:08:50;;;;;;;20.48;9.77;;;0.70;99.90;;;;;;5053319;28;20031;-87
2024/01/17 02:11:17;;;;;;;15.05;9.32;;;0.70;99.90;;;;;;5063213;28;20016;-86
2024/01/17 02:13:44;;;;;;;22.45;10.40;;;0.70;99.90;;;;;;5054239;28;20056;-86
2024/01/17 02:16:09;;;;;;;18.73;9.57;;;0.70;99.90;;;;;;5054640;28;20025;-86
2024/01/17 02:18:35;;;;;;;18.25;9.05;;;0.60;99.90;;;;;;5071709;28;20036;-86
2024/01/17 02:21:01;;;;;;;27.58;9.45;;;0.70;99.90;;;;;;5072924;28;20078;-86
2024/01/17 02:23:30;;;;;;;15.15;8.63;;;0.60;99.90;;;;;;5043507;28;20060;-86
2024/01/17 02:25:58;;;;;;;18.00;10.15;;;0.60;99.90;;;;;;5055853;28;20049;-86
2024/01/17 02:28:28;;;;;;;22.40;9.27;;;0.60;99.90;;;;;;5052755;28;20049;-86
2024/01/17 02:30:54;;;;;;;19.70;9.73;;;0.60;99.90;;;;;;5057358;28;20031;-86
2024/01/17 02:33:20;;;;;;;22.80;10.07;;;0.70;99.90;;;;;;5072133;28;20112;-85
2024/01/17 02:35:46;;;;;;;19.92;9.93;;;0.70;99.90;;;;;;5059987;28;20052;-86
2024/01/17 02:38:11;;;;;;;21.77;9.75;;;0.70;99.90;;;;;;5061475;28;20063;-86
2024/01/17 02:40:37;;;;;;;19.38;9.38;;;0.70;99.90;;;;;;5071526;28;20036;-85
2024/01/17 02:43:03;;;;;;;19.67;10.15;;;0.60;99.90;;;;;;5065283;28;20020;-85
2024/01/17 02:45:29;;;;;;;21.67;10.65;;;0.60;99.90;;;;;;5072406;28;20030;-86
2024/01/17 02:47:54;;;;;;;21.13;10.10;;;0.60;99.90;;;;;;5071777;28;20371;-86
2024/01/17 02:50:21;;;;;;;14.98;9.75;;;0.60;99.90;;;;;;5072669;28;20480;-86
2024/01/17 02:52:47;;;;;;;21.70;9.55;;;0.60;99.90;;;;;;5072330;28;20024;-86
2024/01/17 02:55:15;;;;;;;17.08;9.45;;;0.60;99.90;;;;;;5068608;28;20028;-86
2024/01/17 02:57:42;;;;;;;19.77;8.98;;;0.60;99.90;;;;;;5072077;28;20103;-86
2024/01/17 03:00:09;;;;;;;20.60;9.80;;;0.60;99.90;;;;;;5069258;28;20040;-85
2024/01/17 03:02:35;;;;;;;19.30;8.93;;;0.50;99.90;;;;;;5072023;28;20380;-86
2024/01/17 03:05:03;;;;;;;19.02;8.88;;;0.50;99.90;;;;;;5072289;28;20020;-86
2024/01/17 03:07:32;;;;;;;20.25;8.93;;;0.50;99.90;;;;;;5071701;28;20048;-86
2024/01/17 03:09:58;;;;;;;19.52;9.23;;;0.50;99.90;;;;;;5069650;28;20040;-86
2024/01/17 03:12:24;;;;;;;19.38;9.90;;;0.50;99.90;;;;;;5034609;28;20469;-86
2024/01/17 03:14:50;;;;;;;16.75;8.73;;;0.50;99.90;;;;;;5051454;28;20036;-85
2024/01/17 03:17:16;;;;;;;19.73;9.30;;;0.50;99.90;;;;;;5051722;28;20029;-86
2024/01/17 03:19:46;;;;;;;17.45;8.50;;;0.50;99.90;;;;;;5051347;28;20481;-85
2024/01/17 03:22:15;;;;;;;17.77;9.07;;;0.50;99.90;;;;;;5051799;28;20029;-85
2024/01/17 03:24:41;;;;;;;19.27;9.65;;;0.50;99.90;;;;;;5052472;28;20496;-85
2024/01/17 03:27:06;;;;;;;17.25;8.90;;;0.50;99.90;;;;;;5060060;28;20392;-87
2024/01/17 03:29:32;;;;;;;12.93;8.80;;;0.60;99.90;;;;;;5071712;28;20099;-86
2024/01/17 03:31:58;;;;;;;16.45;8.77;;;1.20;99.90;;;;;;5072431;28;20025;-86
2024/01/17 03:34:23;;;;;;;14.57;8.93;;;0.60;99.90;;;;;;5072213;28;20403;-86
2024/01/17 03:36:49;;;;;;;16.85;9.27;;;0.60;99.90;;;;;;5070248;28;20031;-85
2024/01/17 03:39:14;;;;;;;15.40;9.13;;;0.60;99.90;;;;;;5054240;28;20063;-85
2024/01/17 03:41:40;;;;;;;20.23;10.38;;;0.70;99.90;;;;;;5054908;28;20052;-86
2024/01/17 03:44:06;;;;;;;13.57;8.23;;;0.60;99.90;;;;;;5051329;28;20021;-85
2024/01/17 03:46:31;;;;;;;20.17;9.15;;;0.60;99.90;;;;;;5062521;28;20021;-85
2024/01/17 03:48:57;;;;;;;13.93;8.63;;;0.60;99.90;;;;;;5071366;28;20090;-85
2024/01/17 03:51:23;;;;;;;18.27;8.43;;;0.60;99.90;;;;;;5050853;28;20021;-85
2024/01/17 03:53:48;;;;;;;13.10;8.05;;;0.60;99.90;;;;;;5058241;28;20040;-85
2024/01/17 03:56:14;;;;;;;14.30;8.70;;;0.60;99.90;;;;;;5050896;28;20139;-86
2024/01/17 03:58:41;;;;;;;16.02;8.02;;;0.60;99.90;;;;;;5060579;28;20032;-85
2024/01/17 04:01:10;;;;;;;15.05;8.15;;;0.50;99.90;;;;;;5071919;28;20384;-86
2024/01/17 04:03:36;;;;;;;11.80;7.43;;;0.50;99.90;;;;;;5070591;28;20033;-85
2024/01/17 04:06:02;;;;;;;13.13;7.50;;;0.50;99.90;;;;;;5071420;28;20023;-85
2024/01/17 04:08:28;;;;;;;15.57;7.55;;;0.50;99.90;;;;;;5071000;28;20124;-86
2024/01/17 04:10:54;;;;;;;18.52;9.35;;;0.50;99.90;;;;;;5066340;28;20124;-86
2024/01/17 04:13:20;;;;;;;15.20;7.55;;;0.50;99.90;;;;;;5051760;28;20145;-85
2024/01/17 04:15:47;;;;;;;22.48;8.35;;;0.50;99.90;;;;;;5051245;28;20048;-86
2024/01/17 04:18:12;;;;;;;14.68;8.18;;;0.50;99.90;;;;;;5050829;28;20032;-86
2024/01/17 04:20:38;;;;;;;14.50;7.97;;;0.50;99.90;;;;;;5051201;28;20032;-86
2024/01/17 04:23:04;;;;;;;21.95;7.57;;;0.40;99.90;;;;;;5058927;28;20515;-85
2024/01/17 04:25:30;;;;;;;19.15;8.02;;;0.40;99.90;;;;;;5070775;28;20086;-85
2024/01/17 04:27:56;;;;;;;16.85;7.63;;;0.50;99.90;;;;;;5069902;28;20021;-85
2024/01/17 04:30:22;;;;;;;13.00;8.15;;;0.40;99.90;;;;;;5071315;28;20032;-85
2024/01/17 04:32:47;;;;;;;12.63;7.13;;;0.50;99.90;;;;;;5069935;28;20119;-85
2024/01/17 04:35:17;;;;;;;15.73;8.70;;;0.40;99.90;;;;;;5069390;28;20029;-85
2024/01/17 04:37:43;;;;;;;21.90;8.73;;;0.40;99.90;;;;;;5051549;28;20035;-86
2024/01/17 04:40:09;;;;;;;14.38;7.72;;;0.40;99.90;;;;;;5059543;28;20041;-85
2024/01/17 04:42:35;;;;;;;12.50;7.60;;;0.40;99.90;;;;;;5076302;28;20020;-85
2024/01/17 04:45:02;;;;;;;11.57;7.97;;;0.30;99.90;;;;;;5078618;28;20153;-85
2024/01/17 04:47:27;;;;;;;11.63;7.43;;;0.40;99.90;;;;;;5074839;28;20020;-83
2024/01/17 04:49:53;;;;;;;12.68;7.53;;;0.40;99.90;;;;;;5074133;28;20043;-87
2024/01/17 04:52:18;;;;;;;13.18;7.15;;;0.40;99.90;;;;;;5073712;28;20107;-86
2024/01/17 04:54:44;;;;;;;21.30;7.78;;;0.40;99.90;;;;;;5055147;28;20045;-86
2024/01/17 04:57:10;;;;;;;11.02;7.45;;;0.40;99.90;;;;;;5056137;28;20029;-86
2024/01/17 04:59:39;;;;;;;13.13;7.40;;;0.50;99.90;;;;;;5073789;28;20365;-86
2024/01/17 05:02:04;;;;;;;11.20;7.20;;;0.50;99.90;;;;;;5074427;28;20025;-85
2024/01/17 05:04:30;;;;;;;13.38;7.72;;;0.50;99.90;;;;;;5074808;28;20060;-86
2024/01/17 05:07:14;;;;;;;13.23;8.18;;;0.50;99.90;;;;;;5073679;28;20112;-86
2024/01/17 05:09:40;;;;;;;14.32;7.75;;;0.40;99.90;;;;;;5068060;28;20032;-86
2024/01/17 05:12:15;;;;;;;16.30;7.97;;;0.50;99.90;;;;;;5069788;28;20024;-86
2024/01/17 05:14:41;;;;;;;14.40;8.63;;;0.60;99.90;;;;;;5067313;28;20037;-86
2024/01/17 05:17:13;;;;;;;14.95;7.53;;;0.60;99.90;;;;;;5057939;28;20119;-86
2024/01/17 05:19:39;;;;;;;16.80;8.02;;;1.70;99.90;;;;;;5054387;28;20029;-86
2024/01/17 05:22:05;;;;;;;17.27;7.65;;;0.50;99.90;;;;;;5053338;28;20024;-86
2024/01/17 05:24:30;;;;;;;13.50;7.90;;;0.50;99.90;;;;;;5060582;28;20052;-86
2024/01/17 05:26:56;;;;;;;13.50;7.88;;;0.50;99.90;;;;;;5056206;28;20033;-87
2024/01/17 05:29:21;;;;;;;19.45;7.68;;;0.50;99.90;;;;;;5072566;28;20029;-85
2024/01/17 05:31:47;;;;;;;14.05;8.25;;;0.50;99.90;;;;;;5072976;28;20020;-87
2024/01/17 05:34:13;;;;;;;11.85;7.15;;;0.40;99.90;;;;;;5073252;28;20024;-86
2024/01/17 05:36:39;;;;;;;13.52;7.88;;;0.50;99.90;;;;;;5058800;28;20053;-86
2024/01/17 05:39:04;;;;;;;13.93;7.70;;;0.40;99.90;;;;;;5056787;28;20040;-85
2024/01/17 05:41:30;;;;;;;10.48;7.60;;;0.40;99.90;;;;;;5057444;28;20044;-85
2024/01/17 05:43:55;;;;;;;14.48;7.50;;;0.40;99.90;;;;;;5051866;28;20025;-85
2024/01/17 05:46:21;;;;;;;15.85;8.02;;;0.40;99.90;;;;;;5053381;28;20045;-85
2024/01/17 05:48:47;;;;;;;14.50;9.02;;;0.30;99.90;;;;;;5052528;28;20037;-85
2024/01/17 05:51:13;;;;;;;12.80;7.28;;;0.30;99.90;;;;;;5053646;28;20072;-85
2024/01/17 05:53:38;;;;;;;13.95;7.53;;;0.20;99.90;;;;;;5053310;28;20417;-85
2024/01/17 05:56:04;;;;;;;9.23;7.38;;;0.20;99.90;;;;;;5052581;28;20547;-85
2024/01/17 05:58:29;;;;;;;13.18;7.50;;;0.20;99.90;;;;;;5064343;28;20040;-84
2024/01/17 06:00:55;;;;;;;14.73;7.97;;;0.10;99.90;;;;;;5066315;28;20024;-85
2024/01/17 06:03:21;;;;;;;12.07;6.95;;;0.00;99.90;;;;;;5071750;28;20376;-85
2024/01/17 06:05:46;;;;;;;24.10;8.63;;;0.00;99.90;;;;;;5071360;28;20154;-85
2024/01/17 06:08:12;;;;;;;8.35;6.80;;;0.00;99.90;;;;;;5073461;28;20032;-85
2024/01/17 06:10:40;;;;;;;9.75;6.63;;;0.00;99.90;;;;;;5063347;28;20489;-85
2024/01/17 06:13:08;;;;;;;11.40;7.18;;;0.00;99.90;;;;;;5053000;28;20033;-85
2024/01/17 06:15:33;;;;;;;12.52;7.63;;;0.00;99.90;;;;;;5063640;28;20368;-85
2024/01/17 06:18:00;;;;;;;11.88;6.57;;;0.00;99.90;;;;;;5072353;28;20028;-86
2024/01/17 06:20:25;;;;;;;13.13;6.60;;;0.00;99.90;;;;;;5072080;28;20094;-86
2024/01/17 06:22:51;;;;;;;13.13;5.85;;;0.00;99.90;;;;;;5068239;28;20087;-85
2024/01/17 06:25:16;;;;;;;13.23;7.07;;;0.00;99.90;;;;;;5053985;28;20037;-86
2024/01/17 06:27:43;;;;;;;11.98;6.85;;;0.00;99.90;;;;;;5054614;28;20025;-86
2024/01/17 06:30:09;;;;;;;16.00;8.15;;;0.00;99.90;;;;;;5059720;28;20082;-86
2024/01/17 06:32:35;;;;;;;13.68;7.40;;;0.00;99.90;;;;;;5060625;28;20480;-86
2024/01/17 06:35:00;;;;;;;12.07;7.38;;;0.00;99.90;;;;;;5072635;28;20115;-85
2024/01/17 06:37:26;;;;;;;8.93;6.20;;;0.00;99.90;;;;;;5071880;28;20028;-84
2024/01/17 06:39:52;;;;;;;11.65;6.68;;;0.00;99.90;;;;;;5070329;28;20429;-84
2024/01/17 06:42:18;;;;;;;12.07;6.78;;;0.00;99.90;;;;;;5071377;28;20029;-85
2024/01/17 06:44:45;;;;;;;14.63;7.22;;;0.00;99.90;;;;;;5053645;28;20032;-85
2024/01/17 06:47:10;;;;;;;9.68;6.72;;;0.00;99.90;;;;;;5071381;28;20012;-84
2024/01/17 06:49:36;;;;;;;10.82;6.38;;;0.00;99.90;;;;;;5063687;28;20045;-84
2024/01/17 06:52:01;;;;;;;9.18;6.57;;;0.00;99.90;;;;;;5052531;28;20067;-84
2024/01/17 06:54:27;;;;;;;16.80;7.03;;;0.00;99.90;;;;;;5048607;28;20026;-84
2024/01/17 06:56:53;;;;;;;13.73;8.50;;;0.10;99.90;;;;;;5052230;28;20024;-84
2024/01/17 06:59:18;;;;;;;11.63;7.10;;;0.10;99.90;;;;;;5051320;28;20029;-84
2024/01/17 07:01:44;;;;;;;17.48;7.60;;;0.10;99.90;;;;;;5051356;28;20108;-84
2024/01/17 07:04:09;;;;;;;13.57;7.22;;;0.10;99.90;;;;;;5051917;28;20067;-84
2024/01/17 07:06:35;;;;;;;14.52;7.47;;;0.20;99.90;;;;;;5051102;28;20025;-84
2024/01/17 07:09:01;;;;;;;13.38;7.13;;;0.20;99.90;;;;;;5052241;28;20017;-84
2024/01/17 07:11:26;;;;;;;9.88;6.82;;;0.20;99.90;;;;;;5059638;28;20173;-84
2024/01/17 07:13:53;;;;;;;9.38;6.38;;;0.20;99.90;;;;;;5051447;28;20025;-84
2024/01/17 07:16:19;;;;;;;14.88;7.82;;;0.20;99.90;;;;;;5052408;28;20082;-84
2024/01/17 07:18:45;;;;;;;10.60;6.78;;;0.20;99.90;;;;;;5052162;28;20469;-83
2024/01/17 07:21:11;;;;;;;15.50;8.18;;;0.30;99.90;;;;;;5060777;28;20024;-86
2024/01/17 07:23:40;;;;;;;13.48;7.38;;;0.30;99.90;;;;;;5052251;28;20114;-85
2024/01/17 07:26:06;;;;;;;12.25;7.13;;;0.30;99.90;;;;;;5053522;28;20032;-84
2024/01/17 07:28:32;;;;;;;10.82;6.60;;;0.30;99.90;;;;;;5051739;28;20100;-85
2024/01/17 07:30:57;;;;;;;12.65;6.53;;;0.50;99.90;;;;;;5055128;28;20111;-85
2024/01/17 07:33:23;;;;;;;8.57;6.70;;;0.20;99.90;;;;;;5060635;28;20547;-85
2024/01/17 07:35:48;;;;;;;11.38;6.85;;;0.20;99.90;;;;;;5050701;28;20554;-84
2024/01/17 07:38:14;;;;;;;14.07;6.82;;;0.20;99.90;;;;;;5051760;28;20032;-85
2024/01/17 07:40:40;;;;;;;10.68;6.53;;;0.20;99.90;;;;;;5051379;28;20033;-85
2024/01/17 07:43:06;;;;;;;13.90;7.30;;;0.30;99.90;;;;;;5055660;28;20044;-84
2024/01/17 07:45:31;;;;;;;11.52;7.07;;;0.30;99.90;;;;;;5067107;28;20028;-84
2024/01/17 07:47:57;;;;;;;15.25;7.03;;;0.20;99.90;;;;;;5072549;28;20025;-85
2024/01/17 07:50:23;;;;;;;12.50;6.65;;;0.20;99.90;;;;;;5067794;28;20440;-84
2024/01/17 07:52:49;;;;;;;11.00;6.60;;;0.30;99.90;;;;;;5067117;28;20033;-84
2024/01/17 07:55:15;;;;;;;11.40;6.90;;;0.20;99.90;;;;;;5070892;28;20025;-86
2024/01/17 07:57:41;;;;;;;19.17;9.40;;;0.30;99.90;;;;;;5070771;28;20036;-84
2024/01/17 08:00:07;;;;;;;15.23;7.53;;;0.30;99.90;;;;;;5069325;28;20145;-84
2024/01/17 08:02:32;;;;;;;11.70;6.25;;;0.40;99.90;;;;;;5069583;28;20472;-84
2024/01/17 08:04:58;;;;;;;8.95;6.78;;;0.40;99.90;;;;;;5071847;28;20044;-86
2024/01/17 08:07:25;;;;;;;10.70;6.63;;;0.40;99.90;;;;;;5069530;28;20016;-85
2024/01/17 08:09:54;;;;;;;15.20;6.60;;;0.40;99.90;;;;;;5068863;28;20063;-86
2024/01/17 08:12:19;;;;;;;9.50;6.28;;;0.40;99.90;;;;;;5069145;28;20387;-84
2024/01/17 08:14:48;;;;;;;14.30;6.95;;;0.40;99.90;;;;;;5072620;28;20024;-82
2024/01/17 08:17:14;;;;;;;9.90;6.18;;;0.50;99.90;;;;;;5074639;28;20028;-84
2024/01/17 08:19:40;;;;;;;10.38;7.10;;;0.50;99.90;;;;;;5075069;28;20377;-84
2024/01/17 08:22:05;;;;;;;12.60;7.35;;;0.60;99.90;;;;;;5074624;28;20020;-84
2024/01/17 08:24:32;;;;;;;16.67;7.70;;;0.60;99.90;;;;;;5067911;28;20048;-85
2024/01/17 08:26:58;;;;;;;11.98;6.78;;;0.60;99.90;;;;;;5071760;28;20082;-86
2024/01/17 08:29:24;;;;;;;10.07;6.63;;;0.60;99.90;;;;;;5074336;28;20048;-84
2024/01/17 08:31:50;;;;;;;15.68;8.38;;;0.60;99.90;;;;;;5068144;28;20025;-85
2024/01/17 08:34:16;;;;;;;10.45;6.28;;;0.60;99.90;;;;;;5074923;28;20031;-85
2024/01/17 08:36:41;;;;;;;12.00;7.30;;;0.60;99.90;;;;;;5075148;28;20016;-85
2024/01/17 08:39:07;;;;;;;12.82;7.13;;;0.60;99.90;;;;;;5075519;28;20115;-89
2024/01/17 08:41:45;;;;;;;9.93;6.55;;;0.60;99.90;;;;;;5074530;28;20070;-87
2024/01/17 08:44:15;;;;;;;14.35;7.07;;;0.50;99.90;;;;;;5074323;28;20082;-88
2024/01/17 08:46:46;;;;;;;14.30;7.28;;;0.60;99.90;;;;;;5073236;28;20028;-82
2024/01/17 08:49:14;;;;;;;17.35;7.28;;;0.60;99.90;;;;;;5058657;28;20087;-85
2024/01/17 08:51:39;;;;;;;12.50;7.25;;;1.50;99.90;;;;;;5068873;28;20095;-84
2024/01/17 08:54:05;;;;;;;13.77;6.90;;;0.60;99.90;;;;;;5074435;28;20516;-84
2024/01/17 08:56:31;;;;;;;12.00;6.47;;;1.40;99.90;;;;;;5074150;28;20507;-84
2024/01/17 08:58:57;;;;;;;13.48;6.70;;;0.70;99.90;;;;;;5073232;28;20048;-84
2024/01/17 09:01:22;;;;;;;9.85;7.20;;;0.70;99.90;;;;;;5064031;28;20473;-89
2024/01/17 09:03:48;;;;;;;9.48;6.30;;;0.70;99.90;;;;;;5054436;28;20376;-85
2024/01/17 09:06:17;;;;;;;11.75;6.13;;;0.70;99.90;;;;;;5068599;28;20495;-84
2024/01/17 09:08:46;;;;;;;12.75;6.53;;;1.70;99.90;;;;;;5064245;28;20040;-85
2024/01/17 09:11:12;;;;;;;9.95;5.95;;;0.70;99.90;;;;;;5070358;28;20035;-87
2024/01/17 09:13:38;;;;;;;14.15;7.97;;;0.70;99.90;;;;;;5068074;28;20029;-85
2024/01/17 09:16:05;;;;;;;13.18;7.80;;;0.70;99.90;;;;;;5053230;28;20125;-85
2024/01/17 09:18:30;;;;;;;17.80;7.30;;;0.70;99.90;;;;;;5053726;28;20056;-86
2024/01/17 09:20:56;;;;;;;15.07;7.03;;;0.70;99.90;;;;;;5051907;28;20763;-85
2024/01/17 09:23:22;;;;;;;12.40;7.22;;;0.70;99.90;;;;;;5052130;28;20037;-86
2024/01/17 09:25:48;;;;;;;9.15;6.32;;;0.70;99.90;;;;;;5051544;28;20025;-86
2024/01/17 09:28:14;;;;;;;13.20;5.85;;;0.70;99.90;;;;;;5068824;28;20198;-83
2024/01/17 09:30:40;;;;;;;10.35;6.25;;;0.70;99.90;;;;;;5071611;28;20497;-85
2024/01/17 09:33:06;;;;;;;12.95;6.22;;;0.70;99.90;;;;;;5072813;28;20024;-85
2024/01/17 09:35:35;;;;;;;12.63;6.97;;;0.70;99.90;;;;;;5064791;28;20456;-86
2024/01/17 09:38:01;;;;;;;14.35;7.10;;;0.70;99.90;;;;;;5068185;28;20025;-86
2024/01/17 09:40:26;;;;;;;12.18;7.22;;;0.70;99.90;;;;;;5059941;28;20468;-86
2024/01/17 09:42:53;;;;;;;16.00;6.97;;;0.70;99.90;;;;;;5072784;28;20488;-84
2024/01/17 09:45:21;;;;;;;12.93;8.13;;;0.70;99.90;;;;;;5072807;28;20104;-85
2024/01/17 09:47:51;;;;;;;13.50;6.72;;;1.40;99.90;;;;;;5072081;28;20025;-84
2024/01/17 09:50:17;;;;;;;14.02;7.18;;;0.70;99.90;;;;;;5066664;28;20024;-85
2024/01/17 09:52:43;;;;;;;13.75;6.53;;;0.60;99.90;;;;;;5064221;28;20033;-86
2024/01/17 09:55:09;;;;;;;10.93;6.30;;;0.60;99.90;;;;;;5063301;28;20020;-87
2024/01/17 09:57:43;;;;;;;13.45;7.35;;;0.60;99.90;;;;;;5070535;28;20102;-85
2024/01/17 10:00:09;;;;;;;15.70;7.90;;;0.60;99.90;;;;;;5069021;28;20033;-86
2024/01/17 10:02:38;;;;;;;16.48;8.88;;;0.60;99.90;;;;;;5070085;28;20483;-86
2024/01/17 10:05:11;;;;;;;13.90;7.90;;;0.60;99.90;;;;;;5071302;28;20480;-86
2024/01/17 10:07:49;;;;;;;13.02;7.25;;;0.70;99.90;;;;;;5071263;28;20032;-84
2024/01/17 10:10:14;;;;;;;12.35;7.93;;;0.60;99.90;;;;;;5069208;28;20477;-85
2024/01/17 10:12:46;;;;;;;16.73;7.90;;;0.60;99.90;;;;;;5070458;28;20040;-85
2024/01/17 10:15:13;;;;;;;11.65;7.28;;;1.40;99.90;;;;;;5071187;28;20075;-85
2024/01/17 10:17:39;;;;;;;15.88;7.70;;;0.60;99.90;;;;;;5071296;28;20032;-86
2024/01/17 10:20:06;;;;;;;12.27;7.18;;;1.50;99.90;;;;;;5071475;28;20044;-85
2024/01/17 10:22:32;;;;;;;17.08;7.93;;;0.80;99.90;;;;;;5069589;28;20021;-88
2024/01/17 10:25:00;;;;;;;13.50;8.30;;;0.80;99.90;;;;;;5069239;28;20086;-86
2024/01/17 10:27:29;;;;;;;14.50;8.13;;;0.90;99.90;;;;;;5071523;28;20021;-85
2024/01/17 10:29:55;;;;;;;12.73;7.57;;;0.90;99.90;;;;;;5069749;28;20105;-84
2024/01/17 10:32:21;;;;;;;12.32;7.43;;;1.80;99.90;;;;;;5070519;28;20048;-85
2024/01/17 10:34:46;;;;;;;16.90;8.68;;;1.00;99.90;;;;;;5071456;28;20028;-84
2024/01/17 10:37:14;;;;;;;12.45;7.97;;;0.90;99.90;;;;;;5070701;28;20490;-86
2024/01/17 10:39:54;;;;;;;13.02;8.82;;;1.00;99.90;;;;;;5072175;28;20028;-85
2024/01/17 10:42:20;;;;;;;12.50;7.95;;;1.00;99.90;;;;;;5069126;28;20028;-84
2024/01/17 10:44:45;;;;;;;13.15;8.25;;;0.80;99.90;;;;;;5069837;28;20040;-86
2024/01/17 10:47:11;;;;;;;13.55;8.27;;;0.90;99.90;;;;;;5071444;28;20031;-85
2024/01/17 10:49:37;;;;;;;17.92;8.07;;;2.10;99.90;;;;;;5069824;28;20044;-85
2024/01/17 10:52:11;;;;;;;13.57;7.63;;;0.90;99.90;;;;;;5067558;28;20028;-86
2024/01/17 10:54:50;;;;;;;14.63;7.60;;;0.90;99.90;;;;;;5070156;28;20457;-86
2024/01/17 10:57:19;;;;;;;20.30;8.15;;;0.90;99.90;;;;;;5070022;28;21699;-84
2024/01/17 10:59:47;;;;;;;9.25;7.53;;;1.90;99.90;;;;;;5070758;28;20040;-85
2024/01/17 11:02:20;;;;;;;12.60;8.38;;;1.00;99.90;;;;;;5072411;28;20017;-85
2024/01/17 11:05:07;;;;;;;13.00;8.23;;;1.00;99.90;;;;;;5071011;28;20028;-86
2024/01/17 11:07:35;;;;;;;14.63;8.27;;;1.00;99.90;;;;;;5067707;28;20064;-85
2024/01/17 11:10:03;;;;;;;13.65;8.35;;;1.00;99.90;;;;;;5068643;28;20028;-85
2024/01/17 11:12:32;;;;;;;15.75;8.02;;;1.00;99.90;;;;;;5070342;28;20028;-85
2024/01/17 11:15:00;;;;;;;20.92;8.38;;;1.00;99.90;;;;;;5068075;28;20128;-85
2024/01/17 11:17:43;;;;;;;22.88;9.55;;;1.00;99.90;;;;;;5070928;28;20071;-84
2024/01/17 11:20:11;;;;;;;17.40;9.55;;;1.50;99.90;;;;;;5067959;28;20502;-85
2024/01/17 11:22:38;;;;;;;12.00;7.50;;;1.00;99.90;;;;;;5068147;28;20051;-84
2024/01/17 11:25:28;;;;;;;13.52;8.40;;;1.10;99.90;;;;;;5071464;28;20047;-84
2024/01/17 11:28:04;;;;;;;16.83;8.02;;;1.00;99.90;;;;;;5069317;28;20048;-85
2024/01/17 11:31:00;;;;;;;16.05;9.38;;;1.10;99.90;;;;;;5072343;28;20053;-86
2024/01/17 11:33:27;;;;;;;13.57;8.48;;;1.00;99.90;;;;;;5072388;28;20396;-85
2024/01/17 11:35:53;;;;;;;12.85;8.48;;;1.10;99.90;;;;;;5074889;28;20040;-85
2024/01/17 11:38:24;;;;;;;15.13;7.75;;;1.00;99.90;;;;;;5055738;28;20029;-81
2024/01/17 11:41:16;;;;;;;12.10;8.23;;;1.10;99.90;;;;;;5064422;28;20035;-87
2024/01/17 11:43:43;;;;;;;20.13;8.68;;;1.20;99.90;;;;;;5067421;28;20036;-85
2024/01/17 11:46:10;;;;;;;15.90;9.45;;;1.10;99.90;;;;;;5053713;28;20036;-86
2024/01/17 11:48:38;;;;;;;19.50;9.57;;;1.20;99.90;;;;;;5053119;28;20025;-85
2024/01/17 11:51:14;;;;;;;19.73;8.98;;;1.20;99.90;;;;;;5053710;28;20104;-86
2024/01/17 11:53:50;;;;;;;19.75;9.75;;;1.20;99.90;;;;;;5054104;28;20457;-85
2024/01/17 11:56:20;;;;;;;15.88;9.02;;;1.20;99.90;;;;;;5054030;28;20017;-89
2024/01/17 11:58:57;;;;;;;14.33;9.10;;;1.30;99.90;;;;;;5057464;28;20135;-88
2024/01/17 12:01:22;;;;;;;15.55;8.20;;;1.30;99.90;;;;;;5069128;28;20191;-88
2024/01/17 12:03:49;;;;;;;16.67;8.40;;;1.30;99.90;;;;;;5065534;28;20107;-88
2024/01/17 12:06:15;;;;;;;13.88;8.40;;;1.20;99.90;;;;;;5056892;28;20021;-89
2024/01/17 12:08:41;;;;;;;13.20;7.85;;;1.20;99.90;;;;;;5056087;28;20031;-89
2024/01/17 12:11:07;;;;;;;12.52;8.30;;;1.20;99.90;;;;;;5068108;28;20039;-87
2024/01/17 12:13:37;;;;;;;15.93;8.98;;;1.20;99.90;;;;;;5055118;28;20025;-89
2024/01/17 12:16:04;;;;;;;14.50;8.63;;;1.20;99.90;;;;;;5066539;28;20510;-85
2024/01/17 12:18:31;;;;;;;11.00;8.32;;;1.20;99.90;;;;;;5074136;28;20044;-85
2024/01/17 12:21:02;;;;;;;17.17;9.60;;;1.20;99.90;;;;;;5073349;28;20035;-84
2024/01/17 12:23:30;;;;;;;13.73;8.15;;;1.20;99.90;;;;;;5070407;28;20044;-85
2024/01/17 12:25:57;;;;;;;15.88;9.30;;;1.20;99.90;;;;;;5066522;28;20021;-87
2024/01/17 12:28:24;;;;;;;17.90;9.20;;;1.20;99.90;;;;;;5059017;28;20023;-85
2024/01/17 12:31:03;;;;;;;14.52;10.45;;;1.30;99.90;;;;;;5069577;28;20033;-87
2024/01/17 12:33:32;;;;;;;11.10;6.67;;;1.20;99.90;;;;;;5056417;28;20126;-88
2024/01/17 12:36:00;;;;;;;15.90;9.23;;;1.30;99.90;;;;;;5040023;28;20115;-88
2024/01/17 12:38:30;;;;;;;15.55;8.55;;;1.30;99.90;;;;;;5059461;28;20108;-88
2024/01/17 12:40:58;;;;;;;14.65;8.57;;;1.30;99.90;;;;;;5073160;28;20036;-88
2024/01/17 12:43:27;;;;;;;13.65;8.40;;;1.30;99.90;;;;;;5068929;28;20072;-88
2024/01/17 12:45:55;;;;;;;13.25;8.63;;;1.30;99.90;;;;;;5052777;28;20029;-88